createdAt,value
2016-06-05T00:00:57.058Z,1013.53
2016-06-05T00:01:57.045Z,1013.51
2016-06-05T00:02:57.032Z,1013.48
2016-06-05T00:03:57.019Z,1013.47
2016-06-05T00:04:56.991Z,1013.47
2016-06-05T00:05:56.978Z,1013.48
2016-06-05T00:06:56.964Z,1013.48
2016-06-05T00:07:56.951Z,1013.47
2016-06-05T00:08:56.939Z,1013.45
2016-06-05T00:09:56.926Z,1013.44
2016-06-05T00:10:56.897Z,1013.43
2016-06-05T00:11:56.885Z,1013.45
2016-06-05T00:12:56.872Z,1013.42
2016-06-05T00:13:56.858Z,1013.46
2016-06-05T00:14:56.845Z,1013.41
2016-06-05T00:15:56.817Z,1013.41
2016-06-05T00:16:56.804Z,1013.41
2016-06-05T00:17:56.791Z,1013.4
2016-06-05T00:18:56.779Z,1013.39
2016-06-05T00:19:56.765Z,1013.37
2016-06-05T00:20:56.752Z,1013.33
2016-06-05T00:21:56.740Z,1013.31
2016-06-05T00:22:56.711Z,1013.32
2016-06-05T00:23:56.698Z,1013.31
2016-06-05T00:24:56.685Z,1013.24
2016-06-05T00:25:56.673Z,1013.24
2016-06-05T00:26:56.659Z,1013.2
2016-06-05T00:27:56.693Z,1013.21
2016-06-05T00:28:56.633Z,1013.21
2016-06-05T00:29:56.620Z,1013.22
2016-06-05T00:30:56.592Z,1013.22
2016-06-05T00:31:56.578Z,1013.2
2016-06-05T00:32:56.566Z,1013.21
2016-06-05T00:33:56.553Z,1013.21
2016-06-05T00:34:56.539Z,1013.17
2016-06-05T00:35:56.511Z,1013.19
2016-06-05T00:36:56.499Z,1013.17
2016-06-05T00:37:56.486Z,1013.14
2016-06-05T00:38:56.472Z,1013.13
2016-06-05T00:39:56.460Z,1013.13
2016-06-05T00:40:56.431Z,1013.15
2016-06-05T00:41:56.419Z,1013.09
2016-06-05T00:42:56.421Z,1013.13
2016-06-05T00:43:56.392Z,1013.1
2016-06-05T00:44:56.380Z,1013.1
2016-06-05T00:45:56.351Z,1013.08
2016-06-05T00:46:56.337Z,1013.08
2016-06-05T00:47:56.324Z,1013.09
2016-06-05T00:48:56.312Z,1013.12
2016-06-05T00:49:56.299Z,1013.07
2016-06-05T00:50:56.271Z,1013.06
2016-06-05T00:51:56.257Z,1013.08
2016-06-05T00:52:56.245Z,1013.05
2016-06-05T00:53:56.248Z,1013.06
2016-06-05T00:54:56.234Z,1013.03
2016-06-05T00:55:56.206Z,1013.04
2016-06-05T00:56:56.193Z,1013.05
2016-06-05T00:57:56.181Z,1013.01
2016-06-05T00:58:56.151Z,1012.97
2016-06-05T00:59:56.139Z,1012.98
2016-06-05T01:00:56.126Z,1012.97
2016-06-05T01:01:56.112Z,1012.96
2016-06-05T01:02:56.099Z,1012.94
2016-06-05T01:03:56.072Z,1012.93
2016-06-05T01:04:56.058Z,1012.95
2016-06-05T01:05:56.045Z,1012.92
2016-06-05T01:06:56.033Z,1012.94
2016-06-05T01:07:56.019Z,1012.89
2016-06-05T01:08:56.006Z,1012.86
2016-06-05T01:09:55.978Z,1012.88
2016-06-05T01:10:55.966Z,1012.83
2016-06-05T01:11:55.952Z,1012.84
2016-06-05T01:12:55.939Z,1012.8
2016-06-05T01:13:55.926Z,1012.83
2016-06-05T01:14:55.913Z,1012.81
2016-06-05T01:15:55.885Z,1012.77
2016-06-05T01:16:55.871Z,1012.71
2016-06-05T01:17:55.874Z,1012.71
2016-06-05T01:18:55.846Z,1012.65
2016-06-05T01:19:55.833Z,1012.66
2016-06-05T01:20:55.821Z,1012.67
2016-06-05T01:21:55.807Z,1012.67
2016-06-05T01:22:55.779Z,1012.64
2016-06-05T01:23:55.765Z,1012.62
2016-06-05T01:24:55.753Z,1012.62
2016-06-05T01:25:55.740Z,1012.66
2016-06-05T01:26:55.726Z,1012.59
2016-06-05T01:27:55.886Z,1012.62
2016-06-05T01:28:55.685Z,1012.58
2016-06-05T01:29:55.672Z,1012.57
2016-06-05T01:30:55.660Z,1012.58
2016-06-05T01:31:55.647Z,1012.49
2016-06-05T01:32:55.633Z,1012.51
2016-06-05T01:33:55.605Z,1012.47
2016-06-05T01:34:55.592Z,1012.48
2016-06-05T01:35:55.579Z,1012.45
2016-06-05T01:36:55.567Z,1012.45
2016-06-05T01:37:55.553Z,1012.43
2016-06-05T01:38:55.540Z,1012.47
2016-06-05T01:39:55.512Z,1012.46
2016-06-05T01:40:55.499Z,1012.44
2016-06-05T01:41:55.486Z,1012.38
2016-06-05T01:42:55.473Z,1012.41
2016-06-05T01:43:55.461Z,1012.41
2016-06-05T01:44:55.447Z,1012.43
2016-06-05T01:45:55.434Z,1012.46
2016-06-05T01:46:55.405Z,1012.44
2016-06-05T01:47:55.393Z,1012.46
2016-06-05T01:48:55.379Z,1012.4
2016-06-05T01:49:55.367Z,1012.37
2016-06-05T01:50:55.354Z,1012.45
2016-06-05T01:51:55.341Z,1012.43
2016-06-05T01:52:55.312Z,1012.47
2016-06-05T01:53:55.299Z,1012.43
2016-06-05T01:54:55.287Z,1012.45
2016-06-05T01:55:55.274Z,1012.45
2016-06-05T01:56:55.260Z,1012.47
2016-06-05T01:57:55.684Z,1012.46
2016-06-05T01:58:55.219Z,1012.45
2016-06-05T01:59:55.207Z,1012.43
2016-06-05T02:00:55.193Z,1012.44
2016-06-05T02:01:55.181Z,1012.42
2016-06-05T02:02:55.152Z,1012.41
2016-06-05T02:03:55.139Z,1012.42
2016-06-05T02:04:55.126Z,1012.45
2016-06-05T02:05:55.113Z,1012.4
2016-06-05T02:06:55.100Z,1012.4
2016-06-05T02:07:55.072Z,1012.41
2016-06-05T02:08:55.058Z,1012.39
2016-06-05T02:09:55.045Z,1012.38
2016-06-05T02:10:55.033Z,1012.37
2016-06-05T02:11:55.020Z,1012.39
2016-06-05T02:12:55.007Z,1012.35
2016-06-05T02:13:54.978Z,1012.37
2016-06-05T02:14:54.965Z,1012.31
2016-06-05T02:15:54.952Z,1012.27
2016-06-05T02:16:54.939Z,1012.24
2016-06-05T02:17:54.926Z,1012.19
2016-06-05T02:18:54.913Z,1012.19
2016-06-05T02:19:54.885Z,1012.21
2016-06-05T02:20:54.872Z,1012.2
2016-06-05T02:21:54.859Z,1012.17
2016-06-05T02:22:54.846Z,1012.17
2016-06-05T02:23:54.832Z,1012.17
2016-06-05T02:24:54.804Z,1012.17
2016-06-05T02:25:54.793Z,1012.18
2016-06-05T02:26:54.779Z,1012.16
2016-06-05T02:27:54.765Z,1012.18
2016-06-05T02:28:54.753Z,1012.18
2016-06-05T02:29:54.740Z,1012.2
2016-06-05T02:30:54.712Z,1012.18
2016-06-05T02:31:54.698Z,1012.21
2016-06-05T02:32:54.686Z,1012.24
2016-06-05T02:33:54.673Z,1012.18
2016-06-05T02:34:54.659Z,1012.17
2016-06-05T02:35:54.631Z,1012.17
2016-06-05T02:36:54.618Z,1012.19
2016-06-05T02:37:54.606Z,1012.25
2016-06-05T02:38:54.592Z,1012.29
2016-06-05T02:39:54.579Z,1012.28
2016-06-05T02:40:54.567Z,1012.24
2016-06-05T02:41:54.538Z,1012.21
2016-06-05T02:42:54.524Z,1012.17
2016-06-05T02:43:54.512Z,1012.17
2016-06-05T02:44:54.499Z,1012.2
2016-06-05T02:45:54.486Z,1012.18
2016-06-05T02:46:54.458Z,1012.22
2016-06-05T02:47:54.445Z,1012.19
2016-06-05T02:48:54.432Z,1012.16
2016-06-05T02:49:54.419Z,1012.16
2016-06-05T02:50:54.406Z,1012.15
2016-06-05T02:51:54.394Z,1012.17
2016-06-05T02:52:54.365Z,1012.16
2016-06-05T02:53:54.351Z,1012.14
2016-06-05T02:54:54.335Z,1012.15
2016-06-05T02:55:54.324Z,1012.16
2016-06-05T02:56:54.294Z,1012.17
2016-06-05T02:57:54.281Z,1012.14
2016-06-05T02:58:54.269Z,1012.13
2016-06-05T02:59:54.256Z,1012.15
2016-06-05T03:00:54.226Z,1012.12
2016-06-05T03:01:54.229Z,1012.09
2016-06-05T03:02:54.201Z,1012.12
2016-06-05T03:03:54.188Z,1012.1
2016-06-05T03:04:54.175Z,1012.1
2016-06-05T03:05:54.162Z,1012.07
2016-06-05T03:06:54.133Z,1012.07
2016-06-05T03:07:54.120Z,1012.1
2016-06-05T03:08:54.108Z,1012.08
2016-06-05T03:09:54.094Z,1012.07
2016-06-05T03:10:54.082Z,1012.09
2016-06-05T03:11:54.070Z,1012.04
2016-06-05T03:12:54.384Z,1012.04
2016-06-05T03:13:54.028Z,1012.05
2016-06-05T03:14:54.014Z,1012.03
2016-06-05T03:15:54.002Z,1012.05
2016-06-05T03:16:53.989Z,1012.05
2016-06-05T03:17:53.960Z,1012.05
2016-06-05T03:18:53.947Z,1012.06
2016-06-05T03:19:53.934Z,1012.07
2016-06-05T03:20:53.921Z,1012.07
2016-06-05T03:21:53.908Z,1012.09
2016-06-05T03:22:53.879Z,1012.04
2016-06-05T03:23:53.866Z,1012.08
2016-06-05T03:24:53.854Z,1012.06
2016-06-05T03:25:53.841Z,1012.03
2016-06-05T03:26:53.844Z,1012.05
2016-06-05T03:27:53.815Z,1012.08
2016-06-05T03:28:54.459Z,1012.1
2016-06-05T03:29:53.774Z,1012.1
2016-06-05T03:30:53.760Z,1012.12
2016-06-05T03:31:53.748Z,1012.16
2016-06-05T03:32:53.735Z,1012.09
2016-06-05T03:33:53.706Z,1012.12
2016-06-05T03:34:53.693Z,1012.04
2016-06-05T03:35:53.681Z,1012.03
2016-06-05T03:36:53.668Z,1012.05
2016-06-05T03:37:53.654Z,1012.05
2016-06-05T03:38:53.626Z,1012.04
2016-06-05T03:39:53.614Z,1012.03
2016-06-05T03:40:53.600Z,1011.96
2016-06-05T03:41:53.587Z,1011.98
2016-06-05T03:42:53.558Z,1011.96
2016-06-05T03:43:53.562Z,1012.02
2016-06-05T03:44:53.533Z,1011.98
2016-06-05T03:45:53.519Z,1012
2016-06-05T03:46:53.507Z,1011.95
2016-06-05T03:47:53.494Z,1011.95
2016-06-05T03:48:53.466Z,1011.95
2016-06-05T03:49:53.453Z,1011.93
2016-06-05T03:50:53.439Z,1011.91
2016-06-05T03:51:53.427Z,1011.92
2016-06-05T03:52:53.414Z,1011.93
2016-06-05T03:53:53.385Z,1011.9
2016-06-05T03:54:53.372Z,1011.89
2016-06-05T03:55:53.360Z,1011.9
2016-06-05T03:56:53.346Z,1011.88
2016-06-05T03:57:53.333Z,1011.82
2016-06-05T03:58:53.351Z,1011.87
2016-06-05T03:59:53.292Z,1011.87
2016-06-05T04:00:53.279Z,1011.94
2016-06-05T04:01:53.266Z,1011.97
2016-06-05T04:02:53.254Z,1011.93
2016-06-05T04:03:53.240Z,1011.95
2016-06-05T04:04:53.212Z,1011.97
2016-06-05T04:05:53.199Z,1011.96
2016-06-05T04:06:53.186Z,1011.96
2016-06-05T04:07:53.173Z,1011.93
2016-06-05T04:08:53.159Z,1011.91
2016-06-05T04:09:53.147Z,1011.9
2016-06-05T04:10:53.118Z,1011.93
2016-06-05T04:11:53.106Z,1011.92
2016-06-05T04:12:53.092Z,1011.91
2016-06-05T04:13:53.064Z,1011.92
2016-06-05T04:14:53.051Z,1011.91
2016-06-05T04:15:53.039Z,1011.95
2016-06-05T04:16:53.025Z,1011.97
2016-06-05T04:17:53.019Z,1011.93
2016-06-05T04:18:53.018Z,1011.92
2016-06-05T04:19:53.048Z,1011.86
2016-06-05T04:20:53.048Z,1011.87
2016-06-05T04:21:53.062Z,1011.86
2016-06-05T04:22:53.073Z,1011.85
2016-06-05T04:23:53.069Z,1011.8
2016-06-05T04:24:53.051Z,1011.78
2016-06-05T04:25:53.048Z,1011.75
2016-06-05T04:26:53.046Z,1011.72
2016-06-05T04:27:53.041Z,1011.72
2016-06-05T04:28:53.470Z,1011.74
2016-06-05T04:29:53.007Z,1011.72
2016-06-05T04:30:52.998Z,1011.75
2016-06-05T04:31:52.989Z,1011.71
2016-06-05T04:32:52.979Z,1011.71
2016-06-05T04:33:52.951Z,1011.74
2016-06-05T04:34:52.940Z,1011.72
2016-06-05T04:35:52.928Z,1011.7
2016-06-05T04:36:52.916Z,1011.71
2016-06-05T04:37:52.903Z,1011.69
2016-06-05T04:38:52.876Z,1011.71
2016-06-05T04:39:52.863Z,1011.7
2016-06-05T04:40:52.851Z,1011.72
2016-06-05T04:41:52.838Z,1011.68
2016-06-05T04:42:52.826Z,1011.65
2016-06-05T04:43:52.798Z,1011.68
2016-06-05T04:44:52.786Z,1011.64
2016-06-05T04:45:52.772Z,1011.66
2016-06-05T04:46:52.761Z,1011.67
2016-06-05T04:47:52.731Z,1011.64
2016-06-05T04:48:52.734Z,1011.67
2016-06-05T04:49:52.706Z,1011.69
2016-06-05T04:50:52.692Z,1011.67
2016-06-05T04:51:52.680Z,1011.66
2016-06-05T04:52:52.652Z,1011.71
2016-06-05T04:53:52.639Z,1011.69
2016-06-05T04:54:52.625Z,1011.7
2016-06-05T04:55:52.613Z,1011.71
2016-06-05T04:56:52.599Z,1011.63
2016-06-05T04:57:52.587Z,1011.64
2016-06-05T04:58:52.558Z,1011.62
2016-06-05T04:59:52.546Z,1011.6
2016-06-05T05:00:52.532Z,1011.66
2016-06-05T05:01:52.519Z,1011.65
2016-06-05T05:02:52.491Z,1011.69
2016-06-05T05:03:52.477Z,1011.67
2016-06-05T05:04:52.465Z,1011.69
2016-06-05T05:05:52.452Z,1011.65
2016-06-05T05:06:52.440Z,1011.66
2016-06-05T05:07:52.410Z,1011.71
2016-06-05T05:08:52.398Z,1011.68
2016-06-05T05:09:52.385Z,1011.69
2016-06-05T05:10:52.372Z,1011.74
2016-06-05T05:11:52.343Z,1011.79
2016-06-05T05:12:52.736Z,1011.78
2016-06-05T05:13:52.865Z,1011.79
2016-06-05T05:14:52.304Z,1011.79
2016-06-05T05:15:52.292Z,1011.81
2016-06-05T05:16:52.278Z,1011.82
2016-06-05T05:17:52.265Z,1011.84
2016-06-05T05:18:52.237Z,1011.82
2016-06-05T05:19:52.224Z,1011.87
2016-06-05T05:20:52.211Z,1011.86
2016-06-05T05:21:52.183Z,1011.84
2016-06-05T05:22:52.170Z,1011.87
2016-06-05T05:23:52.157Z,1011.86
2016-06-05T05:24:52.144Z,1011.85
2016-06-05T05:25:52.131Z,1011.83
2016-06-05T05:26:52.103Z,1011.85
2016-06-05T05:27:52.636Z,1011.87
2016-06-05T05:28:52.624Z,1011.87
2016-06-05T05:29:52.063Z,1011.9
2016-06-05T05:30:52.050Z,1011.86
2016-06-05T05:31:52.038Z,1011.91
2016-06-05T05:32:52.010Z,1011.87
2016-06-05T05:33:51.996Z,1011.88
2016-06-05T05:34:51.983Z,1011.9
2016-06-05T05:35:51.970Z,1011.91
2016-06-05T05:36:51.957Z,1011.9
2016-06-05T05:37:51.929Z,1011.96
2016-06-05T05:38:51.916Z,1011.97
2016-06-05T05:39:51.903Z,1012
2016-06-05T05:40:51.874Z,1011.98
2016-06-05T05:41:51.862Z,1011.98
2016-06-05T05:42:52.318Z,1012
2016-06-05T05:43:51.835Z,1012.03
2016-06-05T05:44:51.822Z,1012.02
2016-06-05T05:45:51.810Z,1012.02
2016-06-05T05:46:51.781Z,1012.06
2016-06-05T05:47:51.768Z,1012.1
2016-06-05T05:48:51.755Z,1012.07
2016-06-05T05:49:51.742Z,1012.1
2016-06-05T05:50:51.729Z,1012.12
2016-06-05T05:51:51.701Z,1012.07
2016-06-05T05:52:51.688Z,1012.09
2016-06-05T05:53:51.675Z,1012.11
2016-06-05T05:54:51.662Z,1012.11
2016-06-05T05:55:51.633Z,1012.13
2016-06-05T05:56:51.620Z,1012.11
2016-06-05T05:57:51.608Z,1012.08
2016-06-05T05:58:51.595Z,1012.08
2016-06-05T05:59:51.582Z,1012.08
2016-06-05T06:00:51.991Z,1012.06
2016-06-05T06:01:51.541Z,1012.05
2016-06-05T06:02:51.527Z,1012.05
2016-06-05T06:03:51.514Z,1012.07
2016-06-05T06:04:51.502Z,1012.07
2016-06-05T06:05:51.473Z,1012.04
2016-06-05T06:06:51.460Z,1012.04
2016-06-05T06:07:51.446Z,1012.03
2016-06-05T06:08:51.434Z,1012.03
2016-06-05T06:09:51.405Z,1012.01
2016-06-05T06:10:51.392Z,1012.05
2016-06-05T06:11:51.379Z,1012.02
2016-06-05T06:12:51.523Z,1012.04
2016-06-05T06:13:51.354Z,1012.02
2016-06-05T06:14:51.325Z,1012.04
2016-06-05T06:15:51.312Z,1012.02
2016-06-05T06:16:51.299Z,1012.02
2016-06-05T06:17:51.286Z,1012
2016-06-05T06:18:51.273Z,1012
2016-06-05T06:19:51.261Z,1011.99
2016-06-05T06:20:51.232Z,1011.97
2016-06-05T06:21:51.219Z,1012.01
2016-06-05T06:22:51.206Z,1011.99
2016-06-05T06:23:51.192Z,1012.01
2016-06-05T06:24:51.165Z,1012.01
2016-06-05T06:25:51.152Z,1012.04
2016-06-05T06:26:51.138Z,1012.02
2016-06-05T06:27:51.766Z,1011.98
2016-06-05T06:28:51.113Z,1012
2016-06-05T06:29:51.083Z,1012.03
2016-06-05T06:30:51.071Z,1012.06
2016-06-05T06:31:51.058Z,1012.05
2016-06-05T06:32:51.046Z,1012.02
2016-06-05T06:33:51.032Z,1012.04
2016-06-05T06:34:51.004Z,1012.03
2016-06-05T06:35:50.991Z,1012.01
2016-06-05T06:36:50.977Z,1012.02
2016-06-05T06:37:50.965Z,1012.06
2016-06-05T06:38:50.937Z,1012.07
2016-06-05T06:39:50.940Z,1012.1
2016-06-05T06:40:50.910Z,1012.1
2016-06-05T06:41:50.898Z,1012.14
2016-06-05T06:42:50.916Z,1012.11
2016-06-05T06:43:50.856Z,1012.14
2016-06-05T06:44:50.843Z,1012.14
2016-06-05T06:45:50.831Z,1012.13
2016-06-05T06:46:50.817Z,1012.16
2016-06-05T06:47:50.805Z,1012.16
2016-06-05T06:48:50.776Z,1012.14
2016-06-05T06:49:50.762Z,1012.15
2016-06-05T06:50:50.750Z,1012.16
2016-06-05T06:51:50.737Z,1012.18
2016-06-05T06:52:50.725Z,1012.18
2016-06-05T06:53:50.711Z,1012.17
2016-06-05T06:54:50.683Z,1012.16
2016-06-05T06:55:50.669Z,1012.13
2016-06-05T06:56:50.656Z,1012.15
2016-06-05T06:57:51.269Z,1012.2
2016-06-05T06:58:50.647Z,1012.18
2016-06-05T06:59:50.602Z,1012.18
2016-06-05T07:00:50.589Z,1012.19
2016-06-05T07:01:50.577Z,1012.22
2016-06-05T07:02:50.563Z,1012.24
2016-06-05T07:03:50.550Z,1012.27
2016-06-05T07:04:50.522Z,1012.25
2016-06-05T07:05:50.510Z,1012.26
2016-06-05T07:06:50.497Z,1012.27
2016-06-05T07:07:50.483Z,1012.28
2016-06-05T07:08:50.455Z,1012.28
2016-06-05T07:09:50.442Z,1012.28
2016-06-05T07:10:50.429Z,1012.28
2016-06-05T07:11:50.415Z,1012.29
2016-06-05T07:12:50.621Z,1012.31
2016-06-05T07:13:50.375Z,1012.28
2016-06-05T07:14:50.362Z,1012.27
2016-06-05T07:15:50.349Z,1012.29
2016-06-05T07:16:50.335Z,1012.31
2016-06-05T07:17:50.322Z,1012.3
2016-06-05T07:18:50.310Z,1012.33
2016-06-05T07:19:50.282Z,1012.34
2016-06-05T07:20:50.268Z,1012.32
2016-06-05T07:21:50.255Z,1012.31
2016-06-05T07:22:50.242Z,1012.35
2016-06-05T07:23:50.229Z,1012.33
2016-06-05T07:24:50.217Z,1012.36
2016-06-05T07:25:50.188Z,1012.3
2016-06-05T07:26:50.175Z,1012.34
2016-06-05T07:27:50.162Z,1012.36
2016-06-05T07:28:50.150Z,1012.35
2016-06-05T07:29:50.136Z,1012.38
2016-06-05T07:30:50.108Z,1012.33
2016-06-05T07:31:50.095Z,1012.32
2016-06-05T07:32:50.082Z,1012.31
2016-06-05T07:33:50.069Z,1012.28
2016-06-05T07:34:50.056Z,1012.3
2016-06-05T07:35:50.027Z,1012.28
2016-06-05T07:36:50.014Z,1012.28
2016-06-05T07:37:50.001Z,1012.28
2016-06-05T07:38:49.989Z,1012.28
2016-06-05T07:39:49.976Z,1012.28
2016-06-05T07:40:49.963Z,1012.32
2016-06-05T07:41:49.934Z,1012.3
2016-06-05T07:42:49.921Z,1012.32
2016-06-05T07:43:50.127Z,1012.3
2016-06-05T07:44:49.895Z,1012.3
2016-06-05T07:45:49.882Z,1012.34
2016-06-05T07:46:49.870Z,1012.35
2016-06-05T07:47:49.841Z,1012.37
2016-06-05T07:48:49.843Z,1012.34
2016-06-05T07:49:49.815Z,1012.37
2016-06-05T07:50:49.802Z,1012.39
2016-06-05T07:51:49.789Z,1012.37
2016-06-05T07:52:49.761Z,1012.43
2016-06-05T07:53:49.764Z,1012.37
2016-06-05T07:54:49.734Z,1012.41
2016-06-05T07:55:49.722Z,1012.42
2016-06-05T07:56:49.709Z,1012.42
2016-06-05T07:57:49.695Z,1012.41
2016-06-05T07:58:49.684Z,1012.46
2016-06-05T07:59:49.655Z,1012.46
2016-06-05T08:00:49.657Z,1012.5
2016-06-05T08:01:49.629Z,1012.45
2016-06-05T08:02:49.616Z,1012.49
2016-06-05T08:03:49.602Z,1012.48
2016-06-05T08:04:49.589Z,1012.49
2016-06-05T08:05:49.577Z,1012.52
2016-06-05T08:06:49.564Z,1012.54
2016-06-05T08:07:49.535Z,1012.53
2016-06-05T08:08:49.522Z,1012.55
2016-06-05T08:09:49.510Z,1012.56
2016-06-05T08:10:49.496Z,1012.58
2016-06-05T08:11:49.483Z,1012.57
2016-06-05T08:12:49.471Z,1012.64
2016-06-05T08:13:49.458Z,1012.63
2016-06-05T08:14:49.445Z,1012.58
2016-06-05T08:15:49.415Z,1012.62
2016-06-05T08:16:49.403Z,1012.59
2016-06-05T08:17:49.390Z,1012.64
2016-06-05T08:18:49.377Z,1012.6
2016-06-05T08:19:49.364Z,1012.61
2016-06-05T08:20:49.351Z,1012.6
2016-06-05T08:21:49.339Z,1012.58
2016-06-05T08:22:49.325Z,1012.59
2016-06-05T08:23:49.298Z,1012.58
2016-06-05T08:24:49.284Z,1012.55
2016-06-05T08:25:49.271Z,1012.58
2016-06-05T08:26:49.258Z,1012.53
2016-06-05T08:27:49.245Z,1012.53
2016-06-05T08:28:49.233Z,1012.53
2016-06-05T08:29:49.220Z,1012.57
2016-06-05T08:30:49.206Z,1012.58
2016-06-05T08:31:49.194Z,1012.61
2016-06-05T08:32:49.165Z,1012.59
2016-06-05T08:33:49.153Z,1012.59
2016-06-05T08:34:49.139Z,1012.55
2016-06-05T08:35:49.127Z,1012.58
2016-06-05T08:36:49.113Z,1012.57
2016-06-05T08:37:49.100Z,1012.59
2016-06-05T08:38:49.087Z,1012.61
2016-06-05T08:39:49.074Z,1012.69
2016-06-05T08:40:49.046Z,1012.72
2016-06-05T08:41:49.033Z,1012.72
2016-06-05T08:42:49.208Z,1012.74
2016-06-05T08:43:49.351Z,1012.8
2016-06-05T08:44:48.994Z,1012.81
2016-06-05T08:45:48.982Z,1012.79
2016-06-05T08:46:48.968Z,1012.8
2016-06-05T08:47:48.971Z,1012.79
2016-06-05T08:48:48.943Z,1012.79
2016-06-05T08:49:48.914Z,1012.79
2016-06-05T08:50:48.901Z,1012.88
2016-06-05T08:51:48.888Z,1012.91
2016-06-05T08:52:48.890Z,1012.97
2016-06-05T08:53:48.862Z,1012.99
2016-06-05T08:54:48.848Z,1012.94
2016-06-05T08:55:48.836Z,1012.97
2016-06-05T08:56:48.823Z,1013.04
2016-06-05T08:57:48.873Z,1013.05
2016-06-05T08:58:49.188Z,1013.08
2016-06-05T08:59:48.769Z,1013.05
2016-06-05T09:00:48.756Z,1013.09
2016-06-05T09:01:48.743Z,1013.11
2016-06-05T09:02:48.730Z,1013.02
2016-06-05T09:03:48.717Z,1013.01
2016-06-05T09:04:48.705Z,1012.98
2016-06-05T09:05:48.708Z,1013.02
2016-06-05T09:06:48.678Z,1013.03
2016-06-05T09:07:48.666Z,1013.1
2016-06-05T09:08:48.653Z,1013.16
2016-06-05T09:09:48.624Z,1013.11
2016-06-05T09:10:48.611Z,1013.13
2016-06-05T09:11:48.598Z,1013.11
2016-06-05T09:12:48.585Z,1013.1
2016-06-05T09:13:49.197Z,1013.12
2016-06-05T09:14:48.559Z,1013.1
2016-06-05T09:15:48.546Z,1013.1
2016-06-05T09:16:48.533Z,1013.1
2016-06-05T09:17:48.505Z,1013.13
2016-06-05T09:18:48.507Z,1013.15
2016-06-05T09:19:48.479Z,1013.19
2016-06-05T09:20:48.466Z,1013.25
2016-06-05T09:21:48.454Z,1013.26
2016-06-05T09:22:48.440Z,1013.22
2016-06-05T09:23:48.426Z,1013.26
2016-06-05T09:24:48.414Z,1013.24
2016-06-05T09:25:48.402Z,1013.21
2016-06-05T09:26:48.373Z,1013.18
2016-06-05T09:27:48.359Z,1013.2
2016-06-05T09:28:48.347Z,1013.09
2016-06-05T09:29:48.334Z,1013.26
2016-06-05T09:30:48.321Z,1013.18
2016-06-05T09:31:48.308Z,1013.15
2016-06-05T09:32:48.295Z,1013.1
2016-06-05T09:33:48.283Z,1013.11
2016-06-05T09:34:48.270Z,1013.09
2016-06-05T09:35:48.256Z,1013.11
2016-06-05T09:36:48.227Z,1013.06
2016-06-05T09:37:48.214Z,1013.06
2016-06-05T09:38:48.202Z,1013.06
2016-06-05T09:39:48.189Z,1013.05
2016-06-05T09:40:48.176Z,1013.07
2016-06-05T09:41:48.164Z,1013.1
2016-06-05T09:42:48.150Z,1013.1
2016-06-05T09:43:48.137Z,1013.07
2016-06-05T09:44:48.108Z,1013.07
2016-06-05T09:45:48.111Z,1013.13
2016-06-05T09:46:48.083Z,1013.11
2016-06-05T09:47:48.085Z,1013.08
2016-06-05T09:48:48.057Z,1013.12
2016-06-05T09:49:48.044Z,1013.08
2016-06-05T09:50:48.032Z,1013.12
2016-06-05T09:51:48.018Z,1013.05
2016-06-05T09:52:48.005Z,1013.14
2016-06-05T09:53:47.992Z,1013.17
2016-06-05T09:54:47.979Z,1013.14
2016-06-05T09:55:47.967Z,1013.17
2016-06-05T09:56:47.938Z,1013.1
2016-06-05T09:57:47.925Z,1013.16
2016-06-05T09:58:47.912Z,1013.09
2016-06-05T09:59:47.899Z,1013.04
2016-06-05T10:00:47.887Z,1013
2016-06-05T10:01:47.873Z,1012.99
2016-06-05T10:02:47.861Z,1013.02
2016-06-05T10:03:47.847Z,1013.06
2016-06-05T10:04:47.834Z,1013.05
2016-06-05T10:05:47.821Z,1013.03
2016-06-05T10:06:47.809Z,1013.03
2016-06-05T10:07:47.780Z,1013.09
2016-06-05T10:08:47.767Z,1013.09
2016-06-05T10:09:47.754Z,1013.07
2016-06-05T10:10:47.741Z,1013.05
2016-06-05T10:11:47.728Z,1013.05
2016-06-05T10:12:47.716Z,1013.06
2016-06-05T10:13:47.999Z,1013.11
2016-06-05T10:14:47.688Z,1013.05
2016-06-05T10:15:47.676Z,1013.13
2016-06-05T10:16:47.663Z,1013.04
2016-06-05T10:17:47.651Z,1013.11
2016-06-05T10:18:47.637Z,1013.06
2016-06-05T10:19:47.624Z,1013.15
2016-06-05T10:20:47.612Z,1013.15
2016-06-05T10:21:47.598Z,1013.15
2016-06-05T10:22:47.585Z,1013.13
2016-06-05T10:23:47.573Z,1013.05
2016-06-05T10:24:47.545Z,1013.05
2016-06-05T10:25:47.532Z,1013.08
2016-06-05T10:26:47.518Z,1013.08
2016-06-05T10:27:47.505Z,1013.11
2016-06-05T10:28:47.493Z,1013.03
2016-06-05T10:29:47.480Z,1013.06
2016-06-05T10:30:47.467Z,1013.07
2016-06-05T10:31:47.453Z,1013.07
2016-06-05T10:32:47.441Z,1013.03
2016-06-05T10:33:47.428Z,1013.08
2016-06-05T10:34:47.415Z,1013.1
2016-06-05T10:35:47.402Z,1013.17
2016-06-05T10:36:47.389Z,1013.19
2016-06-05T10:37:47.376Z,1013.21
2016-06-05T10:38:47.363Z,1013.23
2016-06-05T10:39:47.350Z,1013.15
2016-06-05T10:40:47.338Z,1013.09
2016-06-05T10:41:47.324Z,1013.09
2016-06-05T10:42:47.499Z,1013.16
2016-06-05T10:43:47.455Z,1013.12
2016-06-05T10:44:47.285Z,1013.18
2016-06-05T10:45:47.273Z,1013.11
2016-06-05T10:46:47.260Z,1013.09
2016-06-05T10:47:47.246Z,1013.08
2016-06-05T10:48:47.218Z,1013.05
2016-06-05T10:49:47.221Z,1013.1
2016-06-05T10:50:47.208Z,1013.09
2016-06-05T10:51:47.179Z,1013.07
2016-06-05T10:52:47.166Z,1013.05
2016-06-05T10:53:47.153Z,1013.04
2016-06-05T10:54:47.157Z,1013.08
2016-06-05T10:55:47.128Z,1013.08
2016-06-05T10:56:47.131Z,1013.12
2016-06-05T10:57:47.101Z,1013.13
2016-06-05T10:58:47.089Z,1013.14
2016-06-05T10:59:47.076Z,1013.13
2016-06-05T11:00:47.078Z,1013.05
2016-06-05T11:01:47.065Z,1012.97
2016-06-05T11:02:47.053Z,1013.07
2016-06-05T11:03:47.025Z,1013.08
2016-06-05T11:04:47.028Z,1013.13
2016-06-05T11:05:47.014Z,1013.16
2016-06-05T11:06:47.000Z,1013.17
2016-06-05T11:07:46.988Z,1013.12
2016-06-05T11:08:46.975Z,1013.14
2016-06-05T11:09:46.962Z,1013.12
2016-06-05T11:10:46.950Z,1013.21
2016-06-05T11:11:46.936Z,1013.17
2016-06-05T11:12:47.924Z,1013.21
2016-06-05T11:13:46.911Z,1013.23
2016-06-05T11:14:46.898Z,1013.25
2016-06-05T11:15:46.884Z,1013.3
2016-06-05T11:16:46.871Z,1013.23
2016-06-05T11:17:46.858Z,1013.22
2016-06-05T11:18:46.846Z,1013.24
2016-06-05T11:19:46.833Z,1013.23
2016-06-05T11:20:46.820Z,1013.2
2016-06-05T11:21:46.823Z,1013.23
2016-06-05T11:22:46.793Z,1013.25
2016-06-05T11:23:46.781Z,1013.26
2016-06-05T11:24:46.768Z,1013.25
2016-06-05T11:25:46.755Z,1013.26
2016-06-05T11:26:46.743Z,1013.33
2016-06-05T11:27:47.902Z,1013.28
2016-06-05T11:28:46.717Z,1013.36
2016-06-05T11:29:46.704Z,1013.52
2016-06-05T11:30:46.706Z,1013.54
2016-06-05T11:31:46.693Z,1013.52
2016-06-05T11:32:46.681Z,1013.64
2016-06-05T11:33:46.667Z,1013.51
2016-06-05T11:34:46.670Z,1013.47
2016-06-05T11:35:46.657Z,1013.47
2016-06-05T11:36:46.644Z,1013.45
2016-06-05T11:37:46.631Z,1013.38
2016-06-05T11:38:46.634Z,1013.42
2016-06-05T11:39:46.622Z,1013.49
2016-06-05T11:40:46.624Z,1013.37
2016-06-05T11:41:46.611Z,1013.39
2016-06-05T11:42:46.597Z,1013.39
2016-06-05T11:43:46.600Z,1013.34
2016-06-05T11:44:46.603Z,1013.41
2016-06-05T11:45:46.591Z,1013.36
2016-06-05T11:46:46.577Z,1013.31
2016-06-05T11:47:46.580Z,1013.36
2016-06-05T11:48:46.583Z,1013.34
2016-06-05T11:49:46.569Z,1013.33
2016-06-05T11:50:46.557Z,1013.3
2016-06-05T11:51:46.559Z,1013.31
2016-06-05T11:52:46.562Z,1013.3
2016-06-05T11:53:46.566Z,1013.26
2016-06-05T11:54:46.552Z,1013.29
2016-06-05T11:55:46.554Z,1013.33
2016-06-05T11:56:46.542Z,1013.3
2016-06-05T11:57:46.545Z,1013.28
2016-06-05T11:58:46.547Z,1013.31
2016-06-05T11:59:46.534Z,1013.28
2016-06-05T12:00:46.537Z,1013.25
2016-06-05T12:01:46.539Z,1013.29
2016-06-05T12:02:46.526Z,1013.31
2016-06-05T12:03:46.529Z,1013.33
2016-06-05T12:04:46.531Z,1013.3
2016-06-05T12:05:46.520Z,1013.29
2016-06-05T12:06:46.523Z,1013.47
2016-06-05T12:07:46.524Z,1013.23
2016-06-05T12:08:46.528Z,1013.37